sensor_id;sensor_type;location;lat;lon;timestamp;P1;durP1;ratioP1;P2;durP2;ratioP2
62707;SDS011;48769;51.624;5.886;2024-03-08T00:01:52;45.60;;;25.60;;
62707;SDS011;48769;51.624;5.886;2024-03-08T00:04:18;52.75;;;27.10;;
62707;SDS011;48769;51.624;5.886;2024-03-08T00:06:43;47.65;;;27.30;;
62707;SDS011;48769;51.624;5.886;2024-03-08T00:09:11;49.50;;;27.15;;
62707;SDS011;48769;51.624;5.886;2024-03-08T00:11:36;50.90;;;27.95;;
62707;SDS011;48769;51.624;5.886;2024-03-08T00:14:02;43.60;;;26.23;;
62707;SDS011;48769;51.624;5.886;2024-03-08T00:16:27;44.88;;;25.85;;
62707;SDS011;48769;51.624;5.886;2024-03-08T00:18:52;44.20;;;24.85;;
62707;SDS011;48769;51.624;5.886;2024-03-08T00:21:18;47.47;;;26.02;;
62707;SDS011;48769;51.624;5.886;2024-03-08T00:23:43;48.45;;;27.60;;
62707;SDS011;48769;51.624;5.886;2024-03-08T00:26:08;47.97;;;27.27;;
62707;SDS011;48769;51.624;5.886;2024-03-08T00:28:34;47.25;;;27.48;;
62707;SDS011;48769;51.624;5.886;2024-03-08T00:31:00;42.33;;;25.30;;
62707;SDS011;48769;51.624;5.886;2024-03-08T00:33:25;42.05;;;27.02;;
62707;SDS011;48769;51.624;5.886;2024-03-08T00:35:52;45.40;;;27.70;;
62707;SDS011;48769;51.624;5.886;2024-03-08T00:38:18;48.05;;;27.88;;
62707;SDS011;48769;51.624;5.886;2024-03-08T00:40:44;45.15;;;25.65;;
62707;SDS011;48769;51.624;5.886;2024-03-08T00:43:09;47.20;;;26.80;;
62707;SDS011;48769;51.624;5.886;2024-03-08T00:45:34;45.08;;;28.33;;
62707;SDS011;48769;51.624;5.886;2024-03-08T00:48:00;45.97;;;27.25;;
62707;SDS011;48769;51.624;5.886;2024-03-08T00:50:25;42.03;;;26.77;;
62707;SDS011;48769;51.624;5.886;2024-03-08T00:52:50;49.63;;;27.45;;
62707;SDS011;48769;51.624;5.886;2024-03-08T00:55:16;44.28;;;27.65;;
62707;SDS011;48769;51.624;5.886;2024-03-08T00:57:41;43.67;;;26.38;;
62707;SDS011;48769;51.624;5.886;2024-03-08T01:00:07;41.90;;;25.90;;
62707;SDS011;48769;51.624;5.886;2024-03-08T01:02:36;41.78;;;27.05;;
62707;SDS011;48769;51.624;5.886;2024-03-08T01:05:02;46.60;;;27.02;;
62707;SDS011;48769;51.624;5.886;2024-03-08T01:07:29;46.17;;;26.45;;
62707;SDS011;48769;51.624;5.886;2024-03-08T01:09:54;43.95;;;26.70;;
62707;SDS011;48769;51.624;5.886;2024-03-08T01:12:19;48.22;;;28.13;;
62707;SDS011;48769;51.624;5.886;2024-03-08T01:14:45;49.30;;;27.48;;
62707;SDS011;48769;51.624;5.886;2024-03-08T01:17:10;44.67;;;26.52;;
62707;SDS011;48769;51.624;5.886;2024-03-08T01:19:36;45.80;;;29.00;;
62707;SDS011;48769;51.624;5.886;2024-03-08T01:22:02;51.78;;;28.60;;
62707;SDS011;48769;51.624;5.886;2024-03-08T01:24:28;43.72;;;28.67;;
62707;SDS011;48769;51.624;5.886;2024-03-08T01:26:54;43.97;;;27.15;;
62707;SDS011;48769;51.624;5.886;2024-03-08T01:29:19;49.08;;;28.15;;
62707;SDS011;48769;51.624;5.886;2024-03-08T01:31:44;49.60;;;28.13;;
62707;SDS011;48769;51.624;5.886;2024-03-08T01:34:10;45.90;;;29.13;;
62707;SDS011;48769;51.624;5.886;2024-03-08T01:36:35;47.42;;;28.38;;
62707;SDS011;48769;51.624;5.886;2024-03-08T01:39:02;49.70;;;30.27;;
62707;SDS011;48769;51.624;5.886;2024-03-08T01:41:31;46.88;;;28.52;;
62707;SDS011;48769;51.624;5.886;2024-03-08T01:43:57;49.25;;;27.95;;
62707;SDS011;48769;51.624;5.886;2024-03-08T01:46:22;52.22;;;28.33;;
62707;SDS011;48769;51.624;5.886;2024-03-08T01:48:48;48.92;;;29.40;;
62707;SDS011;48769;51.624;5.886;2024-03-08T01:51:15;48.35;;;27.92;;
62707;SDS011;48769;51.624;5.886;2024-03-08T01:53:41;47.58;;;29.88;;
62707;SDS011;48769;51.624;5.886;2024-03-08T01:56:10;48.45;;;28.42;;
62707;SDS011;48769;51.624;5.886;2024-03-08T01:58:37;50.95;;;29.95;;
62707;SDS011;48769;51.624;5.886;2024-03-08T02:01:03;59.80;;;31.40;;
62707;SDS011;48769;51.624;5.886;2024-03-08T02:03:29;51.88;;;30.35;;
62707;SDS011;48769;51.624;5.886;2024-03-08T02:05:56;48.88;;;31.60;;
62707;SDS011;48769;51.624;5.886;2024-03-08T02:08:23;56.47;;;30.42;;
62707;SDS011;48769;51.624;5.886;2024-03-08T02:10:49;50.83;;;30.70;;
62707;SDS011;48769;51.624;5.886;2024-03-08T02:13:15;51.53;;;29.45;;
62707;SDS011;48769;51.624;5.886;2024-03-08T02:16:00;54.22;;;30.45;;
62707;SDS011;48769;51.624;5.886;2024-03-08T02:18:25;52.65;;;30.45;;
62707;SDS011;48769;51.624;5.886;2024-03-08T02:20:52;55.00;;;30.30;;
62707;SDS011;48769;51.624;5.886;2024-03-08T02:23:18;48.70;;;31.67;;
62707;SDS011;48769;51.624;5.886;2024-03-08T02:25:45;51.58;;;31.15;;
62707;SDS011;48769;51.624;5.886;2024-03-08T02:28:11;53.88;;;31.95;;
62707;SDS011;48769;51.624;5.886;2024-03-08T02:30:37;47.78;;;30.90;;
62707;SDS011;48769;51.624;5.886;2024-03-08T02:33:02;55.72;;;31.00;;
62707;SDS011;48769;51.624;5.886;2024-03-08T02:35:27;53.70;;;31.75;;
62707;SDS011;48769;51.624;5.886;2024-03-08T02:37:53;52.67;;;32.17;;
62707;SDS011;48769;51.624;5.886;2024-03-08T02:40:18;53.85;;;31.40;;
62707;SDS011;48769;51.624;5.886;2024-03-08T02:42:43;48.85;;;32.80;;
62707;SDS011;48769;51.624;5.886;2024-03-08T02:45:09;55.17;;;32.92;;
62707;SDS011;48769;51.624;5.886;2024-03-08T02:47:37;51.10;;;31.27;;
62707;SDS011;48769;51.624;5.886;2024-03-08T02:50:02;51.40;;;31.92;;
62707;SDS011;48769;51.624;5.886;2024-03-08T02:52:28;51.55;;;31.45;;
62707;SDS011;48769;51.624;5.886;2024-03-08T02:54:53;55.78;;;34.03;;
62707;SDS011;48769;51.624;5.886;2024-03-08T02:57:19;57.55;;;34.10;;
62707;SDS011;48769;51.624;5.886;2024-03-08T02:59:44;55.92;;;33.20;;
62707;SDS011;48769;51.624;5.886;2024-03-08T03:02:12;55.33;;;33.42;;
62707;SDS011;48769;51.624;5.886;2024-03-08T03:04:39;58.42;;;34.67;;
62707;SDS011;48769;51.624;5.886;2024-03-08T03:07:05;50.92;;;32.90;;
62707;SDS011;48769;51.624;5.886;2024-03-08T03:09:30;57.92;;;34.30;;
62707;SDS011;48769;51.624;5.886;2024-03-08T03:11:57;52.03;;;33.25;;
62707;SDS011;48769;51.624;5.886;2024-03-08T03:14:23;54.20;;;33.80;;
62707;SDS011;48769;51.624;5.886;2024-03-08T03:16:49;54.45;;;34.22;;
62707;SDS011;48769;51.624;5.886;2024-03-08T03:19:15;61.15;;;36.45;;
62707;SDS011;48769;51.624;5.886;2024-03-08T03:21:40;56.97;;;32.78;;
62707;SDS011;48769;51.624;5.886;2024-03-08T03:24:08;55.15;;;34.00;;
62707;SDS011;48769;51.624;5.886;2024-03-08T03:26:35;59.88;;;33.92;;
62707;SDS011;48769;51.624;5.886;2024-03-08T03:29:03;58.90;;;35.83;;
62707;SDS011;48769;51.624;5.886;2024-03-08T03:31:31;61.42;;;35.45;;
62707;SDS011;48769;51.624;5.886;2024-03-08T03:33:56;59.38;;;35.55;;
62707;SDS011;48769;51.624;5.886;2024-03-08T03:36:26;59.03;;;36.20;;
62707;SDS011;48769;51.624;5.886;2024-03-08T03:38:53;60.90;;;36.28;;
62707;SDS011;48769;51.624;5.886;2024-03-08T03:41:29;59.20;;;35.03;;
62707;SDS011;48769;51.624;5.886;2024-03-08T03:43:55;59.17;;;34.90;;
62707;SDS011;48769;51.624;5.886;2024-03-08T03:46:20;57.88;;;36.45;;
62707;SDS011;48769;51.624;5.886;2024-03-08T03:48:45;60.47;;;36.08;;
62707;SDS011;48769;51.624;5.886;2024-03-08T03:51:11;62.92;;;36.45;;
62707;SDS011;48769;51.624;5.886;2024-03-08T03:53:37;59.83;;;35.60;;
62707;SDS011;48769;51.624;5.886;2024-03-08T03:56:02;58.75;;;36.13;;
62707;SDS011;48769;51.624;5.886;2024-03-08T03:58:32;63.47;;;39.63;;
62707;SDS011;48769;51.624;5.886;2024-03-08T04:00:57;63.65;;;37.67;;
62707;SDS011;48769;51.624;5.886;2024-03-08T04:03:23;61.20;;;36.15;;
62707;SDS011;48769;51.624;5.886;2024-03-08T04:05:48;61.28;;;36.60;;
62707;SDS011;48769;51.624;5.886;2024-03-08T04:08:13;64.45;;;36.95;;
62707;SDS011;48769;51.624;5.886;2024-03-08T04:10:39;64.22;;;36.95;;
62707;SDS011;48769;51.624;5.886;2024-03-08T04:13:07;59.10;;;37.28;;
62707;SDS011;48769;51.624;5.886;2024-03-08T04:15:32;63.60;;;36.40;;
62707;SDS011;48769;51.624;5.886;2024-03-08T04:17:58;57.83;;;35.03;;
62707;SDS011;48769;51.624;5.886;2024-03-08T04:20:25;67.47;;;38.13;;
62707;SDS011;48769;51.624;5.886;2024-03-08T04:22:50;62.75;;;36.65;;
62707;SDS011;48769;51.624;5.886;2024-03-08T04:25:16;65.20;;;37.92;;
62707;SDS011;48769;51.624;5.886;2024-03-08T04:27:41;63.47;;;37.25;;
62707;SDS011;48769;51.624;5.886;2024-03-08T04:30:07;66.97;;;37.67;;
62707;SDS011;48769;51.624;5.886;2024-03-08T04:32:33;65.07;;;37.35;;
62707;SDS011;48769;51.624;5.886;2024-03-08T04:34:58;64.25;;;35.65;;
62707;SDS011;48769;51.624;5.886;2024-03-08T04:37:26;66.28;;;35.08;;
62707;SDS011;48769;51.624;5.886;2024-03-08T04:39:51;61.50;;;36.80;;
62707;SDS011;48769;51.624;5.886;2024-03-08T04:42:17;64.93;;;36.78;;
62707;SDS011;48769;51.624;5.886;2024-03-08T04:44:43;62.42;;;35.13;;
62707;SDS011;48769;51.624;5.886;2024-03-08T04:47:08;67.32;;;37.28;;
62707;SDS011;48769;51.624;5.886;2024-03-08T04:49:35;65.70;;;37.53;;
62707;SDS011;48769;51.624;5.886;2024-03-08T04:52:03;64.78;;;36.83;;
62707;SDS011;48769;51.624;5.886;2024-03-08T04:54:32;66.50;;;37.67;;
62707;SDS011;48769;51.624;5.886;2024-03-08T04:56:58;62.83;;;35.08;;
62707;SDS011;48769;51.624;5.886;2024-03-08T04:59:25;62.42;;;37.47;;
62707;SDS011;48769;51.624;5.886;2024-03-08T05:01:50;58.47;;;35.13;;
62707;SDS011;48769;51.624;5.886;2024-03-08T05:04:16;61.33;;;36.38;;
62707;SDS011;48769;51.624;5.886;2024-03-08T05:06:41;61.60;;;36.88;;
62707;SDS011;48769;51.624;5.886;2024-03-08T05:09:07;61.42;;;36.35;;
62707;SDS011;48769;51.624;5.886;2024-03-08T05:11:44;62.42;;;36.05;;
62707;SDS011;48769;51.624;5.886;2024-03-08T05:14:11;63.40;;;35.92;;
62707;SDS011;48769;51.624;5.886;2024-03-08T05:16:41;62.58;;;36.95;;
62707;SDS011;48769;51.624;5.886;2024-03-08T05:19:07;64.93;;;37.13;;
62707;SDS011;48769;51.624;5.886;2024-03-08T05:21:32;64.03;;;36.88;;
62707;SDS011;48769;51.624;5.886;2024-03-08T05:23:58;66.30;;;39.40;;
62707;SDS011;48769;51.624;5.886;2024-03-08T05:26:23;64.32;;;36.17;;
62707;SDS011;48769;51.624;5.886;2024-03-08T05:28:48;66.93;;;37.58;;
62707;SDS011;48769;51.624;5.886;2024-03-08T05:31:23;63.22;;;35.78;;
62707;SDS011;48769;51.624;5.886;2024-03-08T05:33:48;64.35;;;36.20;;
62707;SDS011;48769;51.624;5.886;2024-03-08T05:36:14;66.15;;;38.15;;
62707;SDS011;48769;51.624;5.886;2024-03-08T05:38:41;65.25;;;36.90;;
62707;SDS011;48769;51.624;5.886;2024-03-08T05:41:08;66.75;;;36.70;;
62707;SDS011;48769;51.624;5.886;2024-03-08T05:43:34;70.97;;;37.95;;
62707;SDS011;48769;51.624;5.886;2024-03-08T05:45:59;66.07;;;36.20;;
62707;SDS011;48769;51.624;5.886;2024-03-08T05:48:24;65.95;;;37.25;;
62707;SDS011;48769;51.624;5.886;2024-03-08T05:50:50;70.10;;;36.83;;
62707;SDS011;48769;51.624;5.886;2024-03-08T05:53:15;65.40;;;35.75;;
62707;SDS011;48769;51.624;5.886;2024-03-08T05:55:41;71.10;;;39.95;;
62707;SDS011;48769;51.624;5.886;2024-03-08T05:58:06;65.72;;;36.70;;
62707;SDS011;48769;51.624;5.886;2024-03-08T06:00:33;61.55;;;36.15;;
62707;SDS011;48769;51.624;5.886;2024-03-08T06:02:59;68.72;;;37.53;;
62707;SDS011;48769;51.624;5.886;2024-03-08T06:05:24;63.75;;;36.45;;
62707;SDS011;48769;51.624;5.886;2024-03-08T06:07:50;65.63;;;37.28;;
62707;SDS011;48769;51.624;5.886;2024-03-08T06:10:18;66.97;;;37.78;;
62707;SDS011;48769;51.624;5.886;2024-03-08T06:12:44;68.30;;;37.47;;
62707;SDS011;48769;51.624;5.886;2024-03-08T06:15:10;67.80;;;38.50;;
62707;SDS011;48769;51.624;5.886;2024-03-08T06:17:39;67.57;;;38.80;;
62707;SDS011;48769;51.624;5.886;2024-03-08T06:20:04;70.57;;;38.40;;
62707;SDS011;48769;51.624;5.886;2024-03-08T06:22:35;68.47;;;38.67;;
62707;SDS011;48769;51.624;5.886;2024-03-08T06:25:07;68.82;;;39.00;;
62707;SDS011;48769;51.624;5.886;2024-03-08T06:27:33;66.95;;;37.88;;
62707;SDS011;48769;51.624;5.886;2024-03-08T06:29:59;67.72;;;39.08;;
62707;SDS011;48769;51.624;5.886;2024-03-08T06:32:29;73.05;;;38.75;;
62707;SDS011;48769;51.624;5.886;2024-03-08T06:34:55;64.53;;;36.08;;
62707;SDS011;48769;51.624;5.886;2024-03-08T06:37:20;68.20;;;38.58;;
62707;SDS011;48769;51.624;5.886;2024-03-08T06:39:47;68.10;;;39.22;;
62707;SDS011;48769;51.624;5.886;2024-03-08T06:42:13;70.82;;;39.47;;
62707;SDS011;48769;51.624;5.886;2024-03-08T06:44:38;65.45;;;37.55;;
62707;SDS011;48769;51.624;5.886;2024-03-08T06:47:10;62.83;;;36.92;;
62707;SDS011;48769;51.624;5.886;2024-03-08T06:49:36;68.22;;;38.83;;
62707;SDS011;48769;51.624;5.886;2024-03-08T06:52:01;72.15;;;38.03;;
62707;SDS011;48769;51.624;5.886;2024-03-08T06:54:26;73.30;;;36.75;;
62707;SDS011;48769;51.624;5.886;2024-03-08T06:56:51;68.18;;;38.22;;
62707;SDS011;48769;51.624;5.886;2024-03-08T06:59:17;67.45;;;37.53;;
62707;SDS011;48769;51.624;5.886;2024-03-08T07:01:43;67.78;;;37.80;;
62707;SDS011;48769;51.624;5.886;2024-03-08T07:04:08;65.97;;;38.45;;
62707;SDS011;48769;51.624;5.886;2024-03-08T07:06:33;63.60;;;36.53;;
62707;SDS011;48769;51.624;5.886;2024-03-08T07:08:59;68.32;;;36.35;;
62707;SDS011;48769;51.624;5.886;2024-03-08T07:11:24;59.53;;;35.22;;
62707;SDS011;48769;51.624;5.886;2024-03-08T07:13:49;65.53;;;37.70;;
62707;SDS011;48769;51.624;5.886;2024-03-08T07:16:14;65.65;;;38.08;;
62707;SDS011;48769;51.624;5.886;2024-03-08T07:18:40;59.67;;;33.97;;
62707;SDS011;48769;51.624;5.886;2024-03-08T07:21:08;60.13;;;34.78;;
62707;SDS011;48769;51.624;5.886;2024-03-08T07:23:36;63.15;;;36.22;;
62707;SDS011;48769;51.624;5.886;2024-03-08T07:26:14;62.10;;;35.95;;
62707;SDS011;48769;51.624;5.886;2024-03-08T07:28:40;61.20;;;36.38;;
62707;SDS011;48769;51.624;5.886;2024-03-08T07:31:06;54.47;;;36.70;;
62707;SDS011;48769;51.624;5.886;2024-03-08T07:33:51;63.85;;;35.97;;
62707;SDS011;48769;51.624;5.886;2024-03-08T07:36:18;60.65;;;35.33;;
62707;SDS011;48769;51.624;5.886;2024-03-08T07:38:44;58.90;;;36.97;;
62707;SDS011;48769;51.624;5.886;2024-03-08T07:41:11;55.90;;;36.60;;
62707;SDS011;48769;51.624;5.886;2024-03-08T07:43:37;60.53;;;37.03;;
62707;SDS011;48769;51.624;5.886;2024-03-08T07:46:03;68.07;;;36.15;;
62707;SDS011;48769;51.624;5.886;2024-03-08T07:48:28;54.53;;;34.88;;
62707;SDS011;48769;51.624;5.886;2024-03-08T07:50:55;51.75;;;34.33;;
62707;SDS011;48769;51.624;5.886;2024-03-08T07:53:21;52.25;;;35.08;;
62707;SDS011;48769;51.624;5.886;2024-03-08T07:55:46;49.33;;;33.33;;
62707;SDS011;48769;51.624;5.886;2024-03-08T07:58:12;53.72;;;35.63;;
62707;SDS011;48769;51.624;5.886;2024-03-08T08:00:38;48.92;;;33.78;;
62707;SDS011;48769;51.624;5.886;2024-03-08T08:03:04;53.53;;;34.60;;
62707;SDS011;48769;51.624;5.886;2024-03-08T08:05:30;50.78;;;34.35;;
62707;SDS011;48769;51.624;5.886;2024-03-08T08:08:00;46.25;;;33.08;;
62707;SDS011;48769;51.624;5.886;2024-03-08T08:10:28;43.45;;;31.00;;
62707;SDS011;48769;51.624;5.886;2024-03-08T08:12:53;46.65;;;33.92;;
62707;SDS011;48769;51.624;5.886;2024-03-08T08:15:19;41.67;;;31.55;;
62707;SDS011;48769;51.624;5.886;2024-03-08T08:17:44;44.95;;;33.08;;
62707;SDS011;48769;51.624;5.886;2024-03-08T08:20:11;42.30;;;32.60;;
62707;SDS011;48769;51.624;5.886;2024-03-08T08:22:39;42.83;;;32.65;;
62707;SDS011;48769;51.624;5.886;2024-03-08T08:25:05;47.35;;;34.20;;
62707;SDS011;48769;51.624;5.886;2024-03-08T08:27:30;43.17;;;32.13;;
62707;SDS011;48769;51.624;5.886;2024-03-08T08:29:56;41.90;;;31.77;;
62707;SDS011;48769;51.624;5.886;2024-03-08T08:32:21;44.58;;;31.73;;
62707;SDS011;48769;51.624;5.886;2024-03-08T08:34:47;38.95;;;30.85;;
62707;SDS011;48769;51.624;5.886;2024-03-08T08:37:13;43.47;;;32.50;;
62707;SDS011;48769;51.624;5.886;2024-03-08T08:39:38;39.35;;;31.30;;
62707;SDS011;48769;51.624;5.886;2024-03-08T08:42:03;40.15;;;31.73;;
62707;SDS011;48769;51.624;5.886;2024-03-08T08:44:29;42.83;;;31.33;;
62707;SDS011;48769;51.624;5.886;2024-03-08T08:46:56;40.20;;;30.77;;
62707;SDS011;48769;51.624;5.886;2024-03-08T08:49:22;42.78;;;30.65;;
62707;SDS011;48769;51.624;5.886;2024-03-08T08:51:51;38.25;;;29.88;;
62707;SDS011;48769;51.624;5.886;2024-03-08T08:54:17;38.53;;;29.25;;
62707;SDS011;48769;51.624;5.886;2024-03-08T08:56:43;34.78;;;28.52;;
62707;SDS011;48769;51.624;5.886;2024-03-08T08:59:09;42.17;;;29.55;;
62707;SDS011;48769;51.624;5.886;2024-03-08T09:01:34;35.15;;;28.45;;
62707;SDS011;48769;51.624;5.886;2024-03-08T09:04:00;41.65;;;29.85;;
62707;SDS011;48769;51.624;5.886;2024-03-08T09:06:25;39.30;;;29.15;;
62707;SDS011;48769;51.624;5.886;2024-03-08T09:08:50;35.97;;;27.92;;
62707;SDS011;48769;51.624;5.886;2024-03-08T09:11:16;39.17;;;29.38;;
62707;SDS011;48769;51.624;5.886;2024-03-08T09:13:43;35.55;;;28.40;;
62707;SDS011;48769;51.624;5.886;2024-03-08T09:16:10;36.47;;;29.00;;
62707;SDS011;48769;51.624;5.886;2024-03-08T09:18:36;37.83;;;28.05;;
62707;SDS011;48769;51.624;5.886;2024-03-08T09:21:01;35.42;;;28.42;;
62707;SDS011;48769;51.624;5.886;2024-03-08T09:23:26;38.05;;;28.20;;
62707;SDS011;48769;51.624;5.886;2024-03-08T09:25:55;41.25;;;30.50;;
62707;SDS011;48769;51.624;5.886;2024-03-08T09:28:22;37.75;;;28.30;;
62707;SDS011;48769;51.624;5.886;2024-03-08T09:30:48;40.80;;;28.45;;
62707;SDS011;48769;51.624;5.886;2024-03-08T09:33:14;36.47;;;27.90;;
62707;SDS011;48769;51.624;5.886;2024-03-08T09:35:44;43.25;;;28.05;;
62707;SDS011;48769;51.624;5.886;2024-03-08T09:38:11;39.35;;;30.45;;
62707;SDS011;48769;51.624;5.886;2024-03-08T09:40:38;41.13;;;29.75;;
62707;SDS011;48769;51.624;5.886;2024-03-08T09:43:03;39.58;;;29.85;;
62707;SDS011;48769;51.624;5.886;2024-03-08T09:45:29;40.05;;;29.05;;
62707;SDS011;48769;51.624;5.886;2024-03-08T09:48:00;40.05;;;30.08;;
62707;SDS011;48769;51.624;5.886;2024-03-08T09:50:26;41.95;;;29.70;;
62707;SDS011;48769;51.624;5.886;2024-03-08T09:52:54;43.95;;;28.67;;
62707;SDS011;48769;51.624;5.886;2024-03-08T09:55:22;38.03;;;28.42;;
62707;SDS011;48769;51.624;5.886;2024-03-08T09:57:47;40.03;;;28.05;;
62707;SDS011;48769;51.624;5.886;2024-03-08T10:00:34;39.85;;;29.27;;
62707;SDS011;48769;51.624;5.886;2024-03-08T10:03:02;40.35;;;29.20;;
62707;SDS011;48769;51.624;5.886;2024-03-08T10:05:28;38.25;;;27.98;;
62707;SDS011;48769;51.624;5.886;2024-03-08T10:07:55;36.22;;;27.50;;
62707;SDS011;48769;51.624;5.886;2024-03-08T10:10:20;39.90;;;28.63;;
62707;SDS011;48769;51.624;5.886;2024-03-08T10:12:46;35.88;;;26.30;;
62707;SDS011;48769;51.624;5.886;2024-03-08T10:15:15;36.40;;;26.33;;
62707;SDS011;48769;51.624;5.886;2024-03-08T10:17:41;36.45;;;26.17;;
62707;SDS011;48769;51.624;5.886;2024-03-08T10:20:17;35.60;;;26.73;;
62707;SDS011;48769;51.624;5.886;2024-03-08T10:22:43;35.25;;;26.08;;
62707;SDS011;48769;51.624;5.886;2024-03-08T10:25:12;34.92;;;26.95;;
62707;SDS011;48769;51.624;5.886;2024-03-08T10:27:38;39.40;;;25.60;;
62707;SDS011;48769;51.624;5.886;2024-03-08T10:30:06;33.50;;;26.20;;
62707;SDS011;48769;51.624;5.886;2024-03-08T10:32:35;35.10;;;25.02;;
62707;SDS011;48769;51.624;5.886;2024-03-08T10:35:00;43.65;;;26.33;;
62707;SDS011;48769;51.624;5.886;2024-03-08T10:37:26;35.70;;;26.60;;
62707;SDS011;48769;51.624;5.886;2024-03-08T10:40:02;32.63;;;24.90;;
62707;SDS011;48769;51.624;5.886;2024-03-08T10:42:35;36.05;;;26.45;;
62707;SDS011;48769;51.624;5.886;2024-03-08T10:45:12;37.72;;;26.20;;
62707;SDS011;48769;51.624;5.886;2024-03-08T10:47:43;36.15;;;26.13;;
62707;SDS011;48769;51.624;5.886;2024-03-08T10:50:20;35.05;;;26.55;;
62707;SDS011;48769;51.624;5.886;2024-03-08T10:52:48;36.40;;;25.33;;
62707;SDS011;48769;51.624;5.886;2024-03-08T10:55:14;35.85;;;26.90;;
62707;SDS011;48769;51.624;5.886;2024-03-08T10:57:41;38.53;;;25.95;;
62707;SDS011;48769;51.624;5.886;2024-03-08T11:00:08;34.03;;;25.92;;
62707;SDS011;48769;51.624;5.886;2024-03-08T11:02:36;35.67;;;26.55;;
62707;SDS011;48769;51.624;5.886;2024-03-08T11:05:04;34.15;;;25.90;;
62707;SDS011;48769;51.624;5.886;2024-03-08T11:07:34;35.30;;;24.98;;
62707;SDS011;48769;51.624;5.886;2024-03-08T11:10:02;36.00;;;24.27;;
62707;SDS011;48769;51.624;5.886;2024-03-08T11:12:38;37.10;;;26.25;;
62707;SDS011;48769;51.624;5.886;2024-03-08T11:15:10;32.58;;;24.90;;
62707;SDS011;48769;51.624;5.886;2024-03-08T11:20:04;35.63;;;24.35;;
62707;SDS011;48769;51.624;5.886;2024-03-08T11:22:40;34.00;;;25.42;;
62707;SDS011;48769;51.624;5.886;2024-03-08T11:25:08;33.03;;;26.10;;
62707;SDS011;48769;51.624;5.886;2024-03-08T11:27:38;33.45;;;26.08;;
62707;SDS011;48769;51.624;5.886;2024-03-08T11:30:04;37.92;;;25.40;;
62707;SDS011;48769;51.624;5.886;2024-03-08T11:32:37;36.28;;;25.50;;
62707;SDS011;48769;51.624;5.886;2024-03-08T11:35:06;33.45;;;25.35;;
62707;SDS011;48769;51.624;5.886;2024-03-08T11:37:34;35.83;;;25.23;;
62707;SDS011;48769;51.624;5.886;2024-03-08T11:40:00;34.58;;;25.02;;
62707;SDS011;48769;51.624;5.886;2024-03-08T11:42:29;35.10;;;25.05;;
62707;SDS011;48769;51.624;5.886;2024-03-08T11:44:55;36.25;;;24.90;;
62707;SDS011;48769;51.624;5.886;2024-03-08T11:47:21;36.45;;;25.33;;
62707;SDS011;48769;51.624;5.886;2024-03-08T11:49:47;36.40;;;26.05;;
62707;SDS011;48769;51.624;5.886;2024-03-08T11:52:14;34.33;;;25.70;;
62707;SDS011;48769;51.624;5.886;2024-03-08T11:54:40;34.75;;;25.73;;
62707;SDS011;48769;51.624;5.886;2024-03-08T11:57:06;34.55;;;26.88;;
62707;SDS011;48769;51.624;5.886;2024-03-08T11:59:32;36.03;;;25.90;;
62707;SDS011;48769;51.624;5.886;2024-03-08T12:02:04;29.75;;;22.92;;
62707;SDS011;48769;51.624;5.886;2024-03-08T12:06:57;35.55;;;25.80;;
62707;SDS011;48769;51.624;5.886;2024-03-08T12:09:26;33.75;;;24.15;;
62707;SDS011;48769;51.624;5.886;2024-03-08T12:11:52;32.42;;;25.27;;
62707;SDS011;48769;51.624;5.886;2024-03-08T12:14:19;36.72;;;25.15;;
62707;SDS011;48769;51.624;5.886;2024-03-08T12:16:45;34.88;;;26.10;;
62707;SDS011;48769;51.624;5.886;2024-03-08T12:19:13;34.17;;;25.60;;
62707;SDS011;48769;51.624;5.886;2024-03-08T12:21:39;35.03;;;26.02;;
62707;SDS011;48769;51.624;5.886;2024-03-08T12:24:11;34.85;;;24.27;;
62707;SDS011;48769;51.624;5.886;2024-03-08T12:26:41;33.28;;;25.35;;
62707;SDS011;48769;51.624;5.886;2024-03-08T12:29:16;31.80;;;25.67;;
62707;SDS011;48769;51.624;5.886;2024-03-08T12:31:47;35.40;;;25.98;;
62707;SDS011;48769;51.624;5.886;2024-03-08T12:34:17;33.22;;;24.92;;
62707;SDS011;48769;51.624;5.886;2024-03-08T12:36:46;30.23;;;23.77;;
62707;SDS011;48769;51.624;5.886;2024-03-08T12:39:17;35.22;;;25.67;;
62707;SDS011;48769;51.624;5.886;2024-03-08T12:41:47;32.42;;;25.52;;
62707;SDS011;48769;51.624;5.886;2024-03-08T12:44:14;33.58;;;25.15;;
62707;SDS011;48769;51.624;5.886;2024-03-08T12:46:40;29.15;;;25.00;;
62707;SDS011;48769;51.624;5.886;2024-03-08T12:49:08;34.63;;;26.33;;
62707;SDS011;48769;51.624;5.886;2024-03-08T12:51:34;32.17;;;24.42;;
62707;SDS011;48769;51.624;5.886;2024-03-08T12:54:01;31.92;;;24.23;;
62707;SDS011;48769;51.624;5.886;2024-03-08T12:56:30;33.53;;;27.05;;
62707;SDS011;48769;51.624;5.886;2024-03-08T12:58:58;32.80;;;26.40;;
62707;SDS011;48769;51.624;5.886;2024-03-08T13:01:28;30.30;;;25.27;;
62707;SDS011;48769;51.624;5.886;2024-03-08T13:03:53;31.48;;;25.30;;
62707;SDS011;48769;51.624;5.886;2024-03-08T13:06:23;33.25;;;27.38;;
62707;SDS011;48769;51.624;5.886;2024-03-08T13:08:50;32.95;;;25.35;;
62707;SDS011;48769;51.624;5.886;2024-03-08T13:11:16;30.30;;;25.13;;
62707;SDS011;48769;51.624;5.886;2024-03-08T13:13:42;32.80;;;25.45;;
62707;SDS011;48769;51.624;5.886;2024-03-08T13:16:09;31.63;;;26.23;;
62707;SDS011;48769;51.624;5.886;2024-03-08T13:18:36;33.15;;;26.63;;
62707;SDS011;48769;51.624;5.886;2024-03-08T13:21:01;31.63;;;26.27;;
62707;SDS011;48769;51.624;5.886;2024-03-08T13:26:20;36.67;;;26.15;;
62707;SDS011;48769;51.624;5.886;2024-03-08T13:28:48;31.40;;;25.20;;
62707;SDS011;48769;51.624;5.886;2024-03-08T13:31:18;29.73;;;25.48;;
62707;SDS011;48769;51.624;5.886;2024-03-08T13:33:44;32.63;;;26.30;;
62707;SDS011;48769;51.624;5.886;2024-03-08T13:36:14;35.08;;;26.90;;
62707;SDS011;48769;51.624;5.886;2024-03-08T13:38:54;35.00;;;24.73;;
62707;SDS011;48769;51.624;5.886;2024-03-08T13:44:04;33.47;;;25.58;;
62707;SDS011;48769;51.624;5.886;2024-03-08T13:46:32;35.00;;;27.08;;
62707;SDS011;48769;51.624;5.886;2024-03-08T13:49:03;33.72;;;26.48;;
62707;SDS011;48769;51.624;5.886;2024-03-08T13:51:34;35.58;;;27.15;;
62707;SDS011;48769;51.624;5.886;2024-03-08T13:54:01;37.55;;;27.05;;
62707;SDS011;48769;51.624;5.886;2024-03-08T13:56:32;34.63;;;26.45;;
62707;SDS011;48769;51.624;5.886;2024-03-08T13:59:28;35.00;;;25.48;;
62707;SDS011;48769;51.624;5.886;2024-03-08T14:02:12;36.10;;;26.55;;
62707;SDS011;48769;51.624;5.886;2024-03-08T14:04:42;33.17;;;26.55;;
62707;SDS011;48769;51.624;5.886;2024-03-08T14:07:16;35.22;;;25.58;;
62707;SDS011;48769;51.624;5.886;2024-03-08T14:09:41;36.13;;;26.38;;
62707;SDS011;48769;51.624;5.886;2024-03-08T14:12:17;33.58;;;26.05;;
62707;SDS011;48769;51.624;5.886;2024-03-08T14:15:09;35.67;;;25.75;;
62707;SDS011;48769;51.624;5.886;2024-03-08T14:17:39;37.13;;;26.60;;
62707;SDS011;48769;51.624;5.886;2024-03-08T14:20:26;38.55;;;26.83;;
62707;SDS011;48769;51.624;5.886;2024-03-08T14:22:55;37.53;;;26.88;;
62707;SDS011;48769;51.624;5.886;2024-03-08T14:25:21;37.15;;;27.45;;
62707;SDS011;48769;51.624;5.886;2024-03-08T14:27:54;37.97;;;25.90;;
62707;SDS011;48769;51.624;5.886;2024-03-08T14:30:27;34.20;;;25.13;;
62707;SDS011;48769;51.624;5.886;2024-03-08T14:33:06;33.17;;;25.38;;